Six Mile Run, Pennsylvania
Current Conditions -  °F | °C
As of 9:53 PM on Tuesday 25 Nov 2014 (Local Time) from KAOO Reporting Station
Clear Clear  
Wind Chill: 33°   Ceiling: Unl
Heat Index: 37°   Visibility: 10mi
Dew Point: 28°   Wind: 5mph
Humidity: 70%   Direction: 340°NNW
Pressure: 30.14"   Gusts: NA
Location:  40.18°N, 78.21°W
Report Text: KAOO 260253Z AUTO 34004KT 10SM CLR 03/M02 A3014 RMK AO2 SLP218 T00281022 53017
Loading
Personal Weather Stations






























Interactive Weather Map New forecast layout! Learn more

10-Day Weather Forecast

Advertisements
Track Severe Weather on mobile